Latest Weather Observations for Liawenee

IDT60801

Issued at 3:31 am EDT Thursday 2 April 2015 (issued every 30 minutes, with the page automatically refreshed every 10 minutes)

About weather observations | Map of weather stations | Latest weather observations for TAS | Other Formats
Station Details ID: 096033 Name: LIAWENEE Lat: -41.90 Lon: 146.67 Height: 1057.0 m
Data from the previous 72 hours. | See also: Recent months at Liawenee
Date/Time
EDT
Temp
°C
App
Temp
°C
Dew
Point
Rel
Hum
%
Delta-T
°C
Wind Press
QNH
hPa
Press
MSL
hPa
Rain
since 9 am
mm
Dir
 
Spd
km/h
Gust
km/h
Spd
kts
Gust
kts
02/03:30am 6.6 3.1 5.6 93 0.5 WSW 13 20 7 11 1008.4 1008.3 1.6
02/03:00am 7.5 4.3 6.9 96 0.3 WSW 13 15 7 8 1008.5 1008.4 1.6
02/02:30am 8.5 5.1 7.6 94 0.5 W 15 20 8 11 1008.9 1008.7 1.6
02/02:00am 8.6 4.5 7.7 94 0.5 WSW 19 26 10 14 1009.1 1008.9 1.4
02/01:30am 10.5 5.4 9.3 92 0.6 WNW 26 35 14 19 1008.0 1007.8 0.8
02/01:23am 10.6 5.1 9.2 91 0.7 WNW 28 48 15 26 1008.0 1007.8 0.8
02/01:00am 10.9 5.7 9.0 88 1.0 NW 26 46 14 25 1008.2 1008.0 0.6
02/12:33am 10.7 5.2 9.1 90 0.8 NW 28 46 15 25 1008.8 1008.6 0.2
02/12:30am 10.8 4.9 8.9 88 1.0 NW 30 46 16 25 1008.9 1008.7 0.2
02/12:00am 11.2 4.2 8.6 84 1.4 WNW 35 59 19 32 1008.6 1008.5 0.0
 
Date/Time
EDT
Temp
°C
App
Temp
°C
Dew
Point
Rel
Hum
%
Delta-T
°C
Wind Press
QNH
hPa
Press
MSL
hPa
Rain
since 9 am
mm
Dir
 
Spd
km/h
Gust
km/h
Spd
kts
Gust
kts
01/11:30pm 12.0 4.9 7.9 76 2.1 NW 35 57 19 31 1008.8 1008.6 0.0
01/11:00pm 12.7 5.0 7.0 68 2.9 WNW 37 59 20 32 1009.1 1008.9 0.0
01/10:31pm 13.9 7.5 5.3 56 4.3 NW 28 48 15 26 1009.3 1009.2 0.0
01/10:30pm 13.8 7.8 5.2 56 4.3 NW 26 48 14 26 1009.3 1009.2 0.0
01/10:00pm 13.7 8.5 5.3 57 4.2 NW 22 39 12 21 1009.1 1008.9 0.0
01/09:30pm 13.1 8.4 6.2 63 3.5 NW 20 35 11 19 1010.3 1010.2 0.0
01/09:00pm 12.9 8.5 7.6 70 2.8 NW 20 30 11 16 1010.6 1010.5 0.0
01/08:30pm 13.3 9.3 6.6 64 3.4 NW 17 26 9 14 1010.9 1010.8 0.0
01/08:00pm 13.2 8.3 7.0 66 3.2 NW 22 44 12 24 1011.2 1011.1 0.0
01/07:30pm 13.4 9.0 7.2 66 3.2 NW 20 35 11 19 1011.3 1011.2 0.0
01/07:00pm 13.6 8.4 7.2 65 3.3 NW 24 39 13 21 1011.3 1011.2 0.0
01/06:30pm 14.2 8.5 6.8 61 3.8 NW 26 41 14 22 1011.5 1011.4 0.0
01/06:08pm 14.7 8.7 7.0 60 4.0 WNW 28 48 15 26 1011.5 1011.4 0.0
01/06:00pm 14.6 9.8 7.2 61 3.9 NW 22 35 12 19 1011.6 1011.6 0.0
01/05:30pm 15.2 9.9 7.0 58 4.3 NW 24 44 13 24 1011.9 1011.8 0.0
01/05:00pm 16.5 11.1 6.3 51 5.3 NW 24 46 13 25 1012.0 1011.9 0.0
01/04:37pm 16.5 10.4 6.6 52 5.1 WNW 28 46 15 25 1012.1 1012.0 0.0
01/04:30pm 17.0 11.4 7.1 52 5.2 WNW 26 41 14 22 1012.4 1012.4 0.0
01/04:05pm 16.4 9.9 6.5 52 5.1 WNW 30 48 16 26 1013.0 1012.9 0.0
01/04:00pm 16.5 9.4 6.6 52 5.2 WNW 33 50 18 27 1013.0 1012.9 0.0
01/03:31pm 17.2 11.1 6.7 50 5.5 WNW 28 50 15 27 1013.3 1013.3 0.0
01/03:30pm 17.5 11.6 7.3 51 5.4 WNW 28 44 15 24 1013.3 1013.3 0.0
01/03:00pm 17.9 11.4 6.7 48 5.9 NW 30 50 16 27 1013.9 1013.8 0.0
01/02:38pm 18.0 12.2 8.0 52 5.4 NW 28 46 15 25 1014.2 1014.2 0.0
01/02:30pm 18.5 13.5 7.9 50 5.7 NW 24 44 13 24 1014.3 1014.3 0.0
01/02:00pm 17.5 12.3 8.9 57 4.7 NNW 26 43 14 23 1014.9 1014.9 0.0
01/01:30pm 17.9 12.2 8.2 53 5.2 NNW 28 46 15 25 1015.4 1015.4 0.0
01/01:29pm 17.8 11.9 7.5 51 5.5 NNW 28 46 15 25 1015.4 1015.4 0.0
01/01:00pm 18.5 14.0 7.0 47 6.1 NNW 20 35 11 19 1015.9 1015.9 0.0
01/12:30pm 17.5 13.2 7.8 53 5.2 NNW 20 39 11 21 1016.4 1016.4 0.0
01/12:00pm 16.4 11.2 7.1 54 4.9 NNW 24 41 13 22 1016.6 1016.7 0.0
01/11:30am 15.4 9.8 7.2 58 4.3 NNW 26 44 14 24 1017.2 1017.2 0.0
01/11:00am 15.7 10.6 6.2 53 4.9 NW 22 32 12 17 1017.7 1017.8 0.0
01/10:30am 15.2 10.5 6.2 55 4.6 NNW 20 33 11 18 1018.0 1016.6 0.0
01/10:00am 15.9 10.2 6.9 55 4.7 NNW 26 41 14 22 1018.3 1016.9 0.0
01/09:30am 15.2 9.0 6.0 54 4.7 NW 28 46 15 25 1018.3 1016.9 0.0
01/09:19am 14.9 8.6 5.7 54 4.6 NW 28 46 15 25 1018.3 1016.9 0.0
01/09:00am 13.9 7.1 5.0 55 4.4 NW 30 44 16 24 1018.3 1016.9 0.0
01/08:30am 13.8 6.6 3.0 48 5.1 NW 30 43 16 23 1018.5 1017.2 0.0
01/08:00am 13.6 7.2 0.9 42 5.7 NW 24 39 13 21 1018.3 1016.9 0.0
01/07:35am 13.4 6.0 -1.0 37 6.2 NW 28 48 15 26 1018.4 1017.1 0.0
01/07:30am 13.2 6.2 -0.8 38 6.1 NW 26 39 14 21 1018.4 1017.1 0.0
01/07:00am 13.0 5.7 -0.3 40 5.8 NW 28 44 15 24 1018.5 1017.2 0.0
01/06:30am 13.0 5.3 0.1 41 5.7 NW 30 52 16 28 1018.6 1017.3 0.0
01/06:01am 13.2 5.5 -0.1 40 5.9 NW 30 48 16 26 1018.6 1017.3 0.0
01/06:00am 13.3 5.2 -0.3 39 6.0 NW 32 48 17 26 1018.6 1017.3 0.0
01/05:41am 12.5 4.8 0.0 42 5.5 NW 30 48 16 26 1018.5 1017.2 0.0
01/05:30am 12.4 4.7 0.2 43 5.4 NW 30 44 16 24 1018.6 1017.3 0.0
01/05:07am 12.4 5.1 -0.1 42 5.5 NW 28 48 15 26 1018.8 1017.5 0.0
01/05:00am 12.3 4.6 -0.2 42 5.4 NW 30 44 16 24 1018.8 1017.5 0.0
01/04:34am 12.5 5.2 0.0 42 5.5 NW 28 52 15 28 1019.2 1017.9 0.0
01/04:30am 12.3 5.0 0.1 43 5.4 NW 28 43 15 23 1019.2 1017.9 0.0
01/04:00am 12.5 6.3 -0.4 41 5.6 NW 22 35 12 19 1019.3 1018.0 0.0
01/03:30am 12.9 6.7 -0.4 40 5.8 NW 22 39 12 21 1019.7 1018.4 0.0
01/03:00am 12.4 6.8 -0.1 42 5.5 NW 19 30 10 16 1020.3 1019.0 0.0
01/02:30am 12.4 7.7 0.8 45 5.2 NNW 15 32 8 17 1021.2 1019.9 0.0
01/02:00am 12.0 7.8 1.6 49 4.7 NNW 13 24 7 13 1021.4 1020.1 0.0
01/01:30am 10.3 7.0 2.2 57 3.7 ENE 9 24 5 13 1021.6 1020.3 0.0
01/01:00am 8.7 6.0 3.7 71 2.3 ENE 7 9 4 5 1021.8 1020.6 0.0
01/12:30am 10.0 7.3 3.5 64 3.0 NE 7 13 4 7 1022.3 1021.0 0.0
01/12:00am 10.8 7.1 0.0 47 4.7 NNE 9 20 5 11 1022.5 1021.3 0.0
 
Date/Time
EDT
Temp
°C
App
Temp
°C
Dew
Point
Rel
Hum
%
Delta-T
°C
Wind Press
QNH
hPa
Press
MSL
hPa
Rain
since 9 am
mm
Dir
 
Spd
km/h
Gust
km/h
Spd
kts
Gust
kts
31/11:30pm 11.0 7.7 0.1 47 4.7 NE 7 13 4 7 1022.9 1021.7 0.0
31/11:00pm 11.9 7.9 0.4 45 5.1 N 11 24 6 13 1023.2 1021.9 0.0
31/10:30pm 11.5 8.7 2.0 52 4.3 N 6 15 3 8 1023.5 1022.3 0.0
31/10:00pm 10.1 6.8 2.7 60 3.4 NNE 9 17 5 9 1023.4 1022.2 0.0
31/09:30pm 7.1 5.0 4.1 81 1.4 SSW 4 7 2 4 1023.4 1022.2 0.0
31/09:00pm 8.8 6.6 5.2 78 1.7 N 6 7 3 4 1023.3 1022.0 0.0
31/08:30pm 9.6 7.9 5.8 77 1.9 WNW 4 7 2 4 1023.3 1022.0 0.0
31/08:00pm 11.9 10.0 7.4 74 2.3 NW 7 13 4 7 1023.2 1021.9 0.0
31/07:30pm 12.7 10.5 7.8 72 2.5 N 9 13 5 7 1022.9 1021.7 0.0
31/07:00pm 13.9 12.0 6.7 62 3.7 NNW 6 9 3 5 1022.8 1021.6 0.0
31/06:30pm 15.4 12.2 5.3 51 5.1 WNW 11 15 6 8 1022.7 1021.5 0.0
31/06:00pm 17.6 13.9 4.2 41 6.7 W 13 19 7 10 1022.4 1021.1 0.0
31/05:30pm 18.2 13.3 1.7 33 7.9 W 17 22 9 12 1022.4 1021.1 0.0
31/05:00pm 19.1 14.3 2.5 33 8.1 WNW 17 24 9 13 1022.7 1021.5 0.0
31/04:30pm 19.6 15.2 2.5 32 8.4 WNW 15 20 8 11 1022.8 1021.6 0.0
31/04:00pm 19.7 14.8 2.1 31 8.5 WNW 17 24 9 13 1023.1 1021.8 0.0
31/03:30pm 19.6 14.3 2.0 31 8.5 W 19 26 10 14 1023.2 1021.9 0.0
31/03:00pm 19.4 14.7 3.2 34 8.0 W 17 24 9 13 1023.3 1022.0 0.0
31/02:30pm 19.3 14.2 3.9 36 7.7 WSW 20 32 11 17 1023.6 1022.4 0.0
31/02:00pm 20.0 14.4 3.3 33 8.3 W 22 32 12 17 1023.7 1022.5 0.0
31/01:30pm 19.4 14.2 2.7 33 8.2 NW 19 30 10 16 1023.7 1022.5 0.0
31/01:00pm 19.7 14.0 3.0 33 8.2 WNW 22 32 12 17 1023.9 1022.7 0.0
31/12:30pm 19.9 14.7 2.3 31 8.6 WNW 19 28 10 15 1024.2 1023.0 0.0
31/12:00pm 19.1 14.4 2.9 34 7.9 NW 17 32 9 17 1024.3 1023.1 0.0
31/11:30am 18.5 14.3 1.9 33 8.0 NW 13 24 7 13 1024.7 1023.5 0.0
31/11:00am 18.1 14.0 4.3 40 6.9 NW 15 24 8 13 1024.9 1023.7 0.0
31/10:30am 16.3 14.1 5.3 48 5.6 ENE 6 9 3 5 1025.2 1024.0 0.0
31/10:00am 13.0 11.4 8.1 72 2.6 SSW 6 9 3 5 1025.2 1024.0 0.0
31/09:30am 11.8 10.0 7.1 73 2.4 ENE 6 9 3 5 1025.2 1024.0 0.0
31/09:00am 7.0 5.2 3.6 79 1.5 ENE 2 7 1 4 1025.2 1024.0 0.0
31/08:30am 4.1 1.6 1.5 83 1.1 NE 4 7 2 4 1024.9 1023.7 0.0
31/08:00am 2.2 0.0 1.3 94 0.4 NE 2 6 1 3 1024.9 1023.7 0.0
31/07:30am 0.7 -2.5 -0.3 93 0.4 W 6 7 3 4 1024.7 1023.5 0.0
31/07:00am 0.3 -2.9 -0.8 92 0.4 W 6 9 3 5 1024.5 1023.3 0.0
31/06:30am 0.3 -2.1 -0.4 95 0.3 NNE 2 7 1 4 1024.2 1023.0 0.0
31/06:00am -0.4 -3.0 -1.4 93 0.4 W 2 9 1 5 1024.1 1022.8 0.0
31/05:30am 0.7 -2.5 -0.2 94 0.3 WNW 6 7 3 4 1023.9 1022.7 0.0
31/05:00am 0.7 -1.3 0.0 95 0.3 CALM 0 0 0 0 1023.9 1022.7 0.0
31/04:30am 1.1 -1.9 0.5 96 0.2 WNW 6 7 3 4 1023.8 1022.6 0.0
31/04:00am 0.1 -3.3 -0.3 97 0.2 WSW 7 9 4 5 1024.1 1022.8 0.0
31/03:30am 0.3 -2.1 -0.1 97 0.2 NNE 2 9 1 5 1024.1 1022.8 0.0
31/03:00am 1.4 -1.2 1.1 98 0.1 WNW 4 7 2 4 1024.3 1023.1 0.0
31/02:30am 0.6 -2.1 0.3 98 0.1 SW 4 9 2 5 1024.5 1023.3 0.0
31/02:00am 0.1 -2.0 -0.6 95 0.3 CALM 0 0 0 0 1024.5 1023.3 0.0
31/01:30am 2.1 -0.8 1.7 97 0.2 WNW 6 7 3 4 1024.4 1023.2 0.0
31/01:00am 1.4 -1.2 1.1 98 0.1 WSW 4 7 2 4 1024.6 1023.4 0.0
31/12:30am 1.1 -0.8 0.7 97 0.2 CALM 0 0 0 0 1024.6 1023.4 0.0
31/12:00am 1.4 -0.5 0.7 95 0.3 CALM 0 0 0 0 1024.8 1023.6 0.0
 
Date/Time
EDT
Temp
°C
App
Temp
°C
Dew
Point
Rel
Hum
%
Delta-T
°C
Wind Press
QNH
hPa
Press
MSL
hPa
Rain
since 9 am
mm
Dir
 
Spd
km/h
Gust
km/h
Spd
kts
Gust
kts
30/11:30pm 2.5 0.8 1.9 96 0.3 CALM 0 0 0 0 1024.9 1023.7 0.0
30/11:00pm 2.6 -0.3 1.3 91 0.5 NW 6 9 3 5 1024.8 1023.6 0.0
30/10:30pm 3.6 0.2 2.1 90 0.6 W 9 11 5 6 1024.7 1023.5 0.0
30/10:00pm 5.2 1.4 3.7 90 0.7 W 13 17 7 9 1024.6 1023.4 0.0
30/09:30pm 5.8 2.1 4.4 91 0.6 W 13 19 7 10 1024.5 1023.3 0.0
30/09:00pm 4.9 2.1 3.4 90 0.7 WNW 7 11 4 6 1024.3 1023.1 0.0
30/08:30pm 4.9 2.2 2.9 87 0.9 NW 6 9 3 5 1023.9 1022.7 0.0
30/08:00pm 6.5 3.9 4.0 84 1.1 WNW 7 9 4 5 1023.5 1022.3 0.0
30/07:30pm 8.4 4.7 4.4 76 1.9 W 13 17 7 9 1023.1 1021.8 0.0
30/07:00pm 10.1 7.2 4.9 70 2.5 S 9 13 5 7 1022.7 1021.5 0.0
30/06:30pm 12.0 8.5 5.6 65 3.2 WSW 13 19 7 10 1022.2 1020.9 0.0
30/06:00pm 12.8 8.2 5.5 61 3.6 SW 19 24 10 13 1021.7 1020.5 0.0
30/05:30pm 13.6 8.0 5.5 58 4.0 WSW 24 33 13 18 1021.3 1020.0 0.0
30/05:00pm 15.1 10.7 6.7 57 4.3 W 19 28 10 15 1021.1 1019.8 0.0
30/04:30pm 14.7 10.1 6.5 58 4.2 WNW 20 30 11 16 1020.9 1019.7 0.0
30/04:00pm 15.7 11.1 6.7 55 4.7 W 20 28 11 15 1020.7 1019.4 0.0
30/03:30pm 16.2 11.4 5.8 50 5.3 WSW 20 33 11 18 1020.8 1019.6 0.0
30/03:00pm 15.9 12.2 4.6 47 5.6 WNW 13 20 7 11 1020.6 1019.3 0.0
30/02:30pm 15.2 10.8 7.2 59 4.2 WNW 20 32 11 17 1020.6 1019.3 0.0
30/02:00pm 14.9 9.7 7.2 60 4.0 WNW 24 37 13 20 1020.8 1019.6 0.0
30/01:30pm 14.4 9.2 7.2 62 3.7 W 24 35 13 19 1020.8 1019.6 0.0
30/01:00pm 14.3 8.3 7.1 62 3.7 W 28 37 15 20 1021.3 1020.0 0.0
30/12:34pm 13.9 7.0 7.2 64 3.5 W 33 52 18 28 1020.8 1019.6 0.0
30/12:30pm 13.3 6.0 7.3 67 3.1 W 35 52 19 28 1020.8 1019.6 0.0
30/12:00pm 12.9 6.6 7.6 70 2.7 W 30 39 16 21 1021.3 1020.0 0.0
30/11:30am 13.0 5.9 7.9 71 2.7 W 35 56 19 30 1021.2 1019.9 0.0
30/11:15am 12.6 5.5 7.9 73 2.4 W 35 54 19 29 1021.1 1019.8 0.0
30/11:00am 12.8 6.0 7.9 72 2.5 WNW 33 46 18 25 1020.9 1019.7 0.0
30/10:30am 10.8 3.8 6.7 76 2.1 W 33 43 18 23 1021.1 1019.8 0.0
30/10:00am 10.4 4.0 6.9 79 1.8 W 30 44 16 24 1020.8 1019.6 0.0
30/09:30am 10.2 3.3 6.5 78 1.8 W 32 46 17 25 1020.4 1019.1 0.0
30/09:00am 9.8 3.3 6.5 80 1.6 W 30 43 16 23 1020.2 1018.9 0.2
30/08:30am 7.6 2.0 5.4 86 1.0 W 24 32 13 17 1020.0 1018.6 0.2
30/08:00am 6.9 1.2 4.9 87 0.9 W 24 30 13 16 1019.8 1018.5 0.2
30/07:30am 6.4 -0.1 4.6 88 0.8 W 28 32 15 17 1019.6 1018.3 0.2
30/07:00am 6.2 -0.4 4.4 88 0.8 W 28 32 15 17 1019.2 1017.9 0.2
30/06:30am 6.5 0.4 4.7 88 0.8 W 26 35 14 19 1019.0 1017.6 0.2
30/06:00am 6.9 -0.3 4.9 87 0.9 W 32 41 17 22 1018.8 1017.5 0.2
30/05:30am 7.0 0.1 4.8 86 1.0 W 30 41 16 22 1018.8 1017.5 0.2
30/05:00am 7.5 0.1 5.1 85 1.1 W 33 43 18 23 1018.8 1017.5 0.2
30/04:30am 7.6 0.4 5.1 84 1.2 W 32 43 17 23 1018.8 1017.5 0.2
30/04:00am 7.8 0.6 5.1 83 1.3 W 32 44 17 24 1019.0 1017.6 0.2

Other Formats:

Comma delimited format used in spreadsheet applications
http://www.bom.gov.au/fwo/IDT60801/IDT60801.95959.axf

JavaScript Object Notation format (JSON) in row-major order
http://www.bom.gov.au/fwo/IDT60801/IDT60801.95959.json